createdAt,value
2022-10-01T00:00:09.038Z,369.10
2022-10-01T00:03:01.337Z,372.63
2022-10-01T00:05:32.924Z,375.23
2022-10-01T00:08:04.626Z,377.67
2022-10-01T00:10:37.011Z,371.65
2022-10-01T00:13:08.223Z,372.27
2022-10-01T00:15:44.833Z,374.17
2022-10-01T00:18:16.093Z,375.63
2022-10-01T00:20:48.422Z,371.77
2022-10-01T00:23:19.988Z,377.55
2022-10-01T00:25:52.391Z,388.40
2022-10-01T00:28:23.610Z,358.60
2022-10-01T00:30:57.828Z,370.75
2022-10-01T00:33:29.474Z,375.33
2022-10-01T00:36:00.897Z,376.00
2022-10-01T00:38:32.134Z,380.92
2022-10-01T00:41:03.771Z,369.93
2022-10-01T00:43:37.841Z,378.80
2022-10-01T00:46:18.908Z,366.08
2022-10-01T00:48:58.377Z,371.42
2022-10-01T00:51:34.956Z,376.77
2022-10-01T00:54:12.630Z,377.67
2022-10-01T00:56:44.653Z,384.23
2022-10-01T00:59:18.442Z,372.77
2022-10-01T01:01:52.639Z,367.15
2022-10-01T01:04:24.000Z,380.95
2022-10-01T01:06:59.476Z,374.92
2022-10-01T01:09:33.664Z,369.65
2022-10-01T01:12:11.918Z,366.65
2022-10-01T01:14:48.968Z,370.75
2022-10-01T01:17:30.474Z,374.45
2022-10-01T01:20:16.714Z,371.75
2022-10-01T01:22:59.486Z,360.33
2022-10-01T01:25:39.534Z,370.17
2022-10-01T01:28:25.466Z,371.70
2022-10-01T01:30:59.951Z,373.42
2022-10-01T01:33:34.986Z,373.10
2022-10-01T01:36:10.741Z,371.98
2022-10-01T01:38:46.058Z,359.42
2022-10-01T01:41:19.052Z,368.27
2022-10-01T01:43:56.867Z,371.70
2022-10-01T01:46:33.407Z,367.65
2022-10-01T01:49:05.820Z,374.67
2022-10-01T01:51:43.365Z,370.52
2022-10-01T01:54:15.205Z,361.92
2022-10-01T01:56:46.498Z,369.88
2022-10-01T01:59:21.524Z,370.25
2022-10-01T02:01:52.780Z,356.58
2022-10-01T02:04:28.326Z,363.70
2022-10-01T02:07:29.404Z,367.27
2022-10-01T02:10:12.074Z,352.67
2022-10-01T02:12:53.948Z,353.33
2022-10-01T02:15:37.211Z,361.65
2022-10-01T02:18:16.805Z,350.95
2022-10-01T02:20:52.961Z,352.10
2022-10-01T02:23:30.385Z,350.80
2022-10-01T02:26:06.889Z,365.88
2022-10-01T02:28:40.702Z,346.92
2022-10-01T02:31:18.038Z,354.10
2022-10-01T02:33:50.047Z,364.40
2022-10-01T02:36:23.986Z,350.20
2022-10-01T02:38:58.493Z,366.40
2022-10-01T02:41:36.983Z,349.92
2022-10-01T02:44:13.377Z,355.63
2022-10-01T02:46:52.861Z,363.35
2022-10-01T02:49:28.572Z,363.33
2022-10-01T02:52:05.466Z,357.90
2022-10-01T02:54:41.445Z,365.42
2022-10-01T02:57:27.566Z,363.08
2022-10-01T03:00:01.138Z,361.15
2022-10-01T03:02:35.668Z,367.10
2022-10-01T03:05:07.565Z,357.70
2022-10-01T03:07:41.011Z,346.95
2022-10-01T03:10:16.297Z,358.35
2022-10-01T03:12:49.185Z,359.02
2022-10-01T03:15:22.119Z,353.83
2022-10-01T03:17:57.780Z,349.80
2022-10-01T03:20:29.291Z,353.90
2022-10-01T03:23:00.786Z,351.02
2022-10-01T03:25:32.102Z,352.52
2022-10-01T03:28:04.267Z,358.55
2022-10-01T03:30:35.794Z,359.58
2022-10-01T03:33:09.918Z,358.50
2022-10-01T03:35:41.089Z,353.13
2022-10-01T03:38:13.921Z,359.93
2022-10-01T03:40:45.045Z,356.23
2022-10-01T03:43:16.489Z,347.45
2022-10-01T03:45:47.726Z,352.30
2022-10-01T03:48:21.865Z,344.38
2022-10-01T03:50:57.549Z,339.38
2022-10-01T03:53:30.525Z,345.92
2022-10-01T03:56:02.622Z,343.48
2022-10-01T04:01:05.171Z,336.65
2022-10-01T04:03:39.230Z,347.48
2022-10-01T04:06:10.525Z,342.10
2022-10-01T04:08:42.089Z,344.77
2022-10-01T04:11:13.982Z,340.67
2022-10-01T04:13:45.355Z,341.38
2022-10-01T04:16:16.534Z,349.45
2022-10-01T04:18:50.649Z,349.50
2022-10-01T04:21:22.022Z,341.95
2022-10-01T04:23:53.496Z,349.00
2022-10-01T04:26:25.418Z,336.42
2022-10-01T04:28:56.939Z,347.50
2022-10-01T04:31:28.343Z,333.85
2022-10-01T04:34:02.407Z,332.80
2022-10-01T04:36:33.914Z,333.15
2022-10-01T04:39:05.384Z,335.60
2022-10-01T04:41:36.866Z,324.58
2022-10-01T04:44:08.962Z,341.67
2022-10-01T04:46:40.207Z,328.60
2022-10-01T04:49:14.296Z,330.33
2022-10-01T04:51:45.819Z,333.38
2022-10-01T04:54:17.268Z,322.33
2022-10-01T04:56:48.414Z,323.92
2022-10-01T04:59:20.004Z,328.53
2022-10-01T05:01:51.177Z,326.42
2022-10-01T05:04:25.235Z,324.03
2022-10-01T05:06:56.536Z,324.25
2022-10-01T05:09:28.032Z,328.65
2022-10-01T05:11:59.335Z,327.02
2022-10-01T05:14:31.470Z,322.67
2022-10-01T05:17:02.691Z,320.55
2022-10-01T05:19:36.817Z,324.30
2022-10-01T05:22:07.980Z,330.92
2022-10-01T05:24:39.890Z,330.77
2022-10-01T05:27:14.348Z,324.63
2022-10-01T05:29:46.069Z,332.67
2022-10-01T05:32:17.309Z,333.83
2022-10-01T05:34:53.740Z,328.33
2022-10-01T05:37:25.058Z,341.75
2022-10-01T05:39:56.455Z,336.93
2022-10-01T05:42:27.702Z,339.05
2022-10-01T05:44:59.337Z,334.65
2022-10-01T05:47:30.541Z,338.05
2022-10-01T05:50:04.704Z,343.70
2022-10-01T05:52:35.920Z,342.60
2022-10-01T05:55:08.349Z,358.83
2022-10-01T05:57:39.682Z,356.25
2022-10-01T06:00:13.116Z,339.48
2022-10-01T06:02:44.516Z,351.40
2022-10-01T06:05:18.898Z,358.52
2022-10-01T06:07:50.145Z,358.40
2022-10-01T06:10:21.614Z,357.10
2022-10-01T06:12:53.380Z,341.05
2022-10-01T06:15:24.860Z,351.70
2022-10-01T06:17:56.285Z,341.70
2022-10-01T06:20:30.303Z,348.05
2022-10-01T06:23:01.710Z,350.23
2022-10-01T06:25:33.271Z,339.02
2022-10-01T06:28:06.120Z,348.38
2022-10-01T06:30:39.595Z,338.95
2022-10-01T06:33:12.560Z,353.80
2022-10-01T06:35:48.609Z,359.27
2022-10-01T06:38:21.445Z,359.95
2022-10-01T06:40:57.141Z,358.65
2022-10-01T06:43:31.209Z,347.75
2022-10-01T06:46:05.440Z,361.00
2022-10-01T06:48:37.021Z,358.95
2022-10-01T06:51:11.496Z,361.58
2022-10-01T06:53:40.189Z,362.30
2022-10-01T06:56:11.736Z,366.10
2022-10-01T06:58:43.493Z,361.83
2022-10-01T07:01:17.122Z,355.20
2022-10-01T07:03:48.416Z,347.95
2022-10-01T07:06:23.237Z,363.00
2022-10-01T07:08:54.527Z,358.95
2022-10-01T07:11:27.249Z,363.08
2022-10-01T07:14:01.626Z,369.67
2022-10-01T07:16:33.139Z,373.38
2022-10-01T07:19:04.580Z,378.98
2022-10-01T07:21:38.670Z,375.55
2022-10-01T07:24:10.021Z,365.92
2022-10-01T07:26:41.529Z,376.60
2022-10-01T07:29:12.746Z,371.10
2022-10-01T07:31:44.414Z,371.88
2022-10-01T07:34:15.616Z,367.88
2022-10-01T07:36:51.774Z,379.17
2022-10-01T07:39:23.092Z,374.95
2022-10-01T07:41:54.739Z,373.60
2022-10-01T07:44:26.735Z,375.63
2022-10-01T07:49:29.447Z,364.23
2022-10-01T07:52:04.601Z,367.17
2022-10-01T07:54:36.010Z,366.92
2022-10-01T07:57:07.407Z,374.00
2022-10-01T07:59:41.115Z,373.88
2022-10-01T08:02:19.181Z,371.65
2022-10-01T08:05:02.599Z,376.35
2022-10-01T08:07:36.990Z,388.20
2022-10-01T08:10:09.267Z,380.25
2022-10-01T08:12:42.832Z,394.35
2022-10-01T08:15:15.471Z,389.48
2022-10-01T08:17:47.803Z,393.70
2022-10-01T08:20:19.760Z,405.30
2022-10-01T08:22:54.313Z,390.58
2022-10-01T08:25:26.183Z,417.70
2022-10-01T08:30:29.101Z,381.20
2022-10-01T08:33:01.497Z,389.42
2022-10-01T08:35:33.567Z,392.02
2022-10-01T08:38:09.978Z,393.48
2022-10-01T08:40:47.921Z,393.73
2022-10-01T08:43:33.669Z,395.00
2022-10-01T08:46:07.539Z,378.27
2022-10-01T08:48:54.809Z,394.40
2022-10-01T08:51:34.523Z,383.67
2022-10-01T08:54:18.919Z,398.35
2022-10-01T08:56:50.815Z,385.83
2022-10-01T08:59:35.370Z,388.95
2022-10-01T09:02:20.134Z,399.52
2022-10-01T09:04:58.894Z,407.08
2022-10-01T09:07:44.967Z,404.92
2022-10-01T09:10:42.335Z,399.98
2022-10-01T09:13:50.246Z,408.67
2022-10-01T09:16:28.477Z,393.42
2022-10-01T09:19:14.382Z,404.17
2022-10-01T09:21:59.095Z,392.00
2022-10-01T09:24:43.448Z,405.48
2022-10-01T09:27:20.590Z,418.45
2022-10-01T09:29:55.324Z,413.92
2022-10-01T09:35:54.925Z,406.87
2022-10-01T09:38:32.118Z,414.38
2022-10-01T09:41:05.150Z,419.40
2022-10-01T09:46:17.400Z,403.25
2022-10-01T09:48:57.608Z,406.85
2022-10-01T09:51:38.089Z,424.05
2022-10-01T09:54:19.576Z,436.52
2022-10-01T09:56:56.211Z,424.08
2022-10-01T09:59:34.296Z,408.65
2022-10-01T10:02:11.016Z,427.98
2022-10-01T10:04:42.719Z,422.52
2022-10-01T10:07:20.563Z,419.88
2022-10-01T10:09:51.993Z,427.25
2022-10-01T10:12:31.765Z,422.73
2022-10-01T10:15:11.622Z,431.63
2022-10-01T10:17:46.469Z,427.85
2022-10-01T10:20:27.731Z,441.42
2022-10-01T10:23:09.934Z,434.25
2022-10-01T10:28:23.896Z,419.63
2022-10-01T10:31:00.362Z,422.20
2022-10-01T10:33:31.711Z,425.70
2022-10-01T10:36:06.051Z,431.23
2022-10-01T10:38:38.148Z,429.02
2022-10-01T10:41:19.917Z,419.77
2022-10-01T10:43:52.051Z,429.08
2022-10-01T10:46:32.802Z,447.42
2022-10-01T10:49:11.629Z,429.25
2022-10-01T10:51:49.498Z,425.17
2022-10-01T10:54:27.049Z,440.40
2022-10-01T10:57:02.599Z,430.02
2022-10-01T10:59:35.544Z,434.05
2022-10-01T11:02:19.614Z,431.33
2022-10-01T11:04:50.810Z,423.83
2022-10-01T11:07:24.528Z,425.27
2022-10-01T11:10:28.404Z,449.98
2022-10-01T11:13:22.282Z,433.05
2022-10-01T11:16:21.734Z,437.80
2022-10-01T11:19:20.472Z,444.23
2022-10-01T11:22:05.079Z,436.20
2022-10-01T11:25:03.935Z,437.35
2022-10-01T11:27:43.868Z,429.13
2022-10-01T11:30:22.863Z,438.60
2022-10-01T11:33:06.632Z,437.10
2022-10-01T11:35:50.353Z,440.85
2022-10-01T11:38:43.523Z,448.70
2022-10-01T11:41:27.806Z,446.58
2022-10-01T11:44:02.281Z,452.08
2022-10-01T11:46:56.534Z,451.40
2022-10-01T11:50:00.123Z,454.90
2022-10-01T11:52:59.605Z,444.70
2022-10-01T11:55:49.366Z,456.55
2022-10-01T11:58:42.501Z,446.58
2022-10-01T12:01:22.281Z,434.95
2022-10-01T12:04:17.724Z,455.38
2022-10-01T12:06:58.197Z,438.08
2022-10-01T12:09:39.154Z,447.90
2022-10-01T12:12:15.624Z,441.65
2022-10-01T12:14:57.167Z,456.92
2022-10-01T12:17:35.480Z,456.75
2022-10-01T12:20:16.894Z,464.70
2022-10-01T12:22:50.019Z,447.23
2022-10-01T12:25:29.392Z,455.60
2022-10-01T12:28:07.920Z,459.98
2022-10-01T12:30:48.874Z,438.73
2022-10-01T12:33:40.258Z,443.23
2022-10-01T12:36:21.068Z,453.65
2022-10-01T12:39:06.859Z,457.55
2022-10-01T12:41:52.518Z,455.70
2022-10-01T12:44:50.598Z,448.92
2022-10-01T12:47:36.479Z,461.05
2022-10-01T12:50:24.090Z,458.63
2022-10-01T12:53:08.158Z,439.27
2022-10-01T12:56:07.345Z,464.60
2022-10-01T12:59:06.541Z,452.25
2022-10-01T13:01:46.703Z,453.48
2022-10-01T13:04:45.450Z,465.88
2022-10-01T13:07:29.859Z,447.40
2022-10-01T13:10:12.512Z,463.52
2022-10-01T13:15:28.009Z,449.48
2022-10-01T13:18:05.278Z,439.42
2022-10-01T13:21:05.860Z,455.48
2022-10-01T13:23:43.948Z,453.33
2022-10-01T13:26:21.024Z,467.20
2022-10-01T13:51:42.441Z,444.40
2022-10-01T13:54:30.348Z,456.42
2022-10-01T13:57:11.087Z,447.65
2022-10-01T14:00:04.335Z,453.35
2022-10-01T14:02:40.062Z,453.30
2022-10-01T14:05:30.989Z,469.80
2022-10-01T14:08:31.886Z,462.58
2022-10-01T14:11:20.112Z,451.05
2022-10-01T14:14:06.671Z,442.20
2022-10-01T14:16:42.897Z,441.48
2022-10-01T14:19:25.162Z,444.05
2022-10-01T14:22:05.696Z,447.50
2022-10-01T14:25:12.794Z,436.15
2022-10-01T14:27:50.182Z,437.75
2022-10-01T14:30:27.538Z,451.80
2022-10-01T14:33:19.745Z,445.80
2022-10-01T14:36:00.625Z,439.43
2022-10-01T14:38:34.629Z,451.08
2022-10-01T14:41:08.714Z,453.83
2022-10-01T14:43:43.057Z,455.67
2022-10-01T14:46:18.486Z,457.70
2022-10-01T14:49:01.251Z,443.70
2022-10-01T14:51:34.209Z,453.05
2022-10-01T14:54:06.270Z,460.42
2022-10-01T14:56:45.367Z,460.35
2022-10-01T14:59:23.780Z,456.00
2022-10-01T15:02:01.282Z,453.15
2022-10-01T15:04:34.783Z,458.23
2022-10-01T15:07:17.399Z,457.15
2022-10-01T15:09:49.443Z,456.92
2022-10-01T15:12:25.830Z,460.45
2022-10-01T15:14:57.617Z,455.42
2022-10-01T15:17:30.817Z,446.47
2022-10-01T15:20:02.607Z,442.30
2022-10-01T15:22:36.090Z,450.60
2022-10-01T15:25:09.245Z,453.92
2022-10-01T15:27:44.492Z,459.42
2022-10-01T15:30:19.637Z,460.13
2022-10-01T15:32:52.898Z,465.73
2022-10-01T15:35:27.264Z,472.20
2022-10-01T15:38:20.547Z,446.40
2022-10-01T15:41:13.915Z,448.92
2022-10-01T15:43:53.681Z,443.38
2022-10-01T15:46:46.659Z,449.55
2022-10-01T15:49:23.570Z,449.92
2022-10-01T15:52:12.111Z,457.33
2022-10-01T15:54:45.993Z,454.75
2022-10-01T15:57:23.137Z,454.98
2022-10-01T15:59:59.673Z,449.83
2022-10-01T16:02:34.835Z,450.98
2022-10-01T16:05:09.240Z,435.92
2022-10-01T16:07:40.767Z,457.13
2022-10-01T16:10:29.259Z,440.30
2022-10-01T16:13:01.355Z,457.85
2022-10-01T16:15:35.178Z,437.20
2022-10-01T16:18:24.072Z,451.25
2022-10-01T16:21:00.088Z,455.55
2022-10-01T16:23:44.886Z,450.13
2022-10-01T16:26:32.709Z,444.52
2022-10-01T16:29:07.474Z,441.15
2022-10-01T16:31:46.442Z,439.73
2022-10-01T16:34:22.487Z,439.70
2022-10-01T16:37:16.291Z,436.77
2022-10-01T16:39:49.567Z,429.70
2022-10-01T16:42:26.226Z,445.73
2022-10-01T16:44:58.320Z,440.08
2022-10-01T16:47:32.541Z,445.55
2022-10-01T16:50:04.357Z,442.40
2022-10-01T16:52:36.550Z,438.23
2022-10-01T16:55:18.445Z,430.85
2022-10-01T16:57:50.157Z,440.02
2022-10-01T17:00:24.395Z,425.75
2022-10-01T17:02:59.841Z,439.92
2022-10-01T17:05:33.405Z,442.85
2022-10-01T17:08:11.416Z,438.23
2022-10-01T17:10:46.240Z,430.50
2022-10-01T17:13:20.634Z,432.23
2022-10-01T17:15:53.404Z,438.30
2022-10-01T17:18:27.353Z,434.52
2022-10-01T17:20:59.732Z,436.70
2022-10-01T17:23:31.509Z,439.05
2022-10-01T17:26:03.617Z,426.67
2022-10-01T17:28:54.968Z,421.87
2022-10-01T17:31:31.429Z,431.95
2022-10-01T17:34:05.748Z,448.02
2022-10-01T17:36:47.548Z,436.92
2022-10-01T17:39:39.028Z,434.98
2022-10-01T17:42:11.757Z,444.23
2022-10-01T17:47:18.012Z,421.48
2022-10-01T17:49:51.845Z,431.73
2022-10-01T17:52:25.891Z,423.55
2022-10-01T17:54:57.701Z,434.48
2022-10-01T17:57:49.763Z,430.15
2022-10-01T18:00:22.097Z,434.80
2022-10-01T18:03:36.348Z,417.27
2022-10-01T18:06:13.843Z,425.80
2022-10-01T18:09:07.274Z,429.70
2022-10-01T18:11:39.794Z,419.45
2022-10-01T18:14:11.804Z,429.08
2022-10-01T18:16:43.536Z,426.50
2022-10-01T18:22:14.328Z,420.30
2022-10-01T18:24:46.004Z,401.63
2022-10-01T18:27:18.107Z,414.70
2022-10-01T18:29:52.865Z,416.45
2022-10-01T18:32:28.667Z,417.70
2022-10-01T18:35:28.270Z,408.35
2022-10-01T18:38:08.127Z,412.48
2022-10-01T18:40:47.195Z,408.98
2022-10-01T18:43:41.243Z,411.35
2022-10-01T18:46:24.288Z,388.65
2022-10-01T18:49:16.427Z,400.35
2022-10-01T18:52:19.746Z,381.52
2022-10-01T18:57:58.576Z,366.40
2022-10-01T19:00:38.873Z,370.85
2022-10-01T19:03:34.930Z,372.90
2022-10-01T19:06:43.419Z,375.10
2022-10-01T19:09:28.943Z,387.70
2022-10-01T19:12:15.561Z,378.05
2022-10-01T19:15:01.139Z,381.75
2022-10-01T19:17:46.345Z,380.85
2022-10-01T19:20:31.866Z,384.30
2022-10-01T19:23:42.046Z,375.58
2022-10-01T19:26:19.984Z,375.40
2022-10-01T19:29:04.767Z,371.38
2022-10-01T19:31:46.741Z,377.83
2022-10-01T19:34:24.887Z,377.13
2022-10-01T19:37:10.170Z,385.48
2022-10-01T19:39:44.050Z,381.30
2022-10-01T19:42:21.688Z,375.42
2022-10-01T19:45:11.209Z,374.52
2022-10-01T19:47:54.152Z,366.45
2022-10-01T19:53:27.959Z,349.80
2022-10-01T19:56:03.880Z,363.35
2022-10-01T19:58:36.434Z,366.25
2022-10-01T20:01:34.480Z,365.87
2022-10-01T20:04:17.771Z,368.23
2022-10-01T20:06:52.315Z,363.65
2022-10-01T20:09:30.578Z,368.92
2022-10-01T20:12:30.143Z,349.92
2022-10-01T20:15:26.959Z,356.83
2022-10-01T20:18:13.461Z,365.42
2022-10-01T20:21:01.529Z,356.67
2022-10-01T20:23:45.033Z,364.67
2022-10-01T20:26:26.378Z,355.65
2022-10-01T20:29:27.726Z,353.60
2022-10-01T20:32:06.871Z,354.58
2022-10-01T20:34:47.049Z,348.50
2022-10-01T20:37:37.808Z,358.42
2022-10-01T20:40:18.746Z,347.75
